Latest Weather Observations for Kurnell

IDN60801

Issued at 12:32 pm EST Sunday 24 May 2015 (issued every 30 minutes, with the page automatically refreshed every 10 minutes)

About weather observations | Map of weather stations | Latest weather observations for NSW | Other Formats
Station Details ID: 066043 Name: KURNELL AWS Lat: -34.00 Lon: 151.21 Height: 4.0 m
Data from the previous 72 hours. | See also: Recent months for locations in New South Wales
Date/Time
EST
Temp
°C
App
Temp
°C
Dew
Point
Rel
Hum
%
Delta-T
°C
Wind Press
QNH
hPa
Press
MSL
hPa
Rain
since 9 am
mm
Dir
 
Spd
km/h
Gust
km/h
Spd
kts
Gust
kts
24/12:30pm - - - - - SSW 19 28 10 15 - - -
24/12:00pm - - - - - SSW 19 26 10 14 - - -
24/11:30am - - - - - SW 19 26 10 14 - - -
24/11:00am - - - - - WSW 17 24 9 13 - - -
24/10:30am - - - - - WNW 13 17 7 9 - - -
24/10:00am - - - - - WNW 17 19 9 10 - - -
24/09:30am - - - - - NW 15 19 8 10 - - -
24/09:00am - - - - - WNW 15 19 8 10 - - -
24/08:30am - - - - - NW 15 19 8 10 - - -
24/08:00am - - - - - NW 17 20 9 11 - - -
24/07:30am - - - - - NNW 17 20 9 11 - - -
24/07:00am - - - - - NW 19 22 10 12 - - -
24/06:30am - - - - - WNW 22 26 12 14 - - -
24/06:00am - - - - - WNW 17 19 9 10 - - -
24/05:30am - - - - - WNW 15 17 8 9 - - -
24/05:00am - - - - - WNW 15 17 8 9 - - -
24/04:30am - - - - - NW 15 17 8 9 - - -
24/04:00am - - - - - NW 15 17 8 9 - - -
24/03:30am - - - - - NW 13 17 7 9 - - -
24/03:00am - - - - - NW 13 17 7 9 - - -
24/02:30am - - - - - NW 15 17 8 9 - - -
24/02:00am - - - - - NW 15 17 8 9 - - -
24/01:30am - - - - - NW 11 15 6 8 - - -
24/01:00am - - - - - NW 11 15 6 8 - - -
24/12:30am - - - - - NW 11 15 6 8 - - -
24/12:00am - - - - - NW 13 15 7 8 - - -
 
Date/Time
EST
Temp
°C
App
Temp
°C
Dew
Point
Rel
Hum
%
Delta-T
°C
Wind Press
QNH
hPa
Press
MSL
hPa
Rain
since 9 am
mm
Dir
 
Spd
km/h
Gust
km/h
Spd
kts
Gust
kts
23/11:30pm - - - - - NW 13 17 7 9 - - -
23/11:00pm - - - - - W 15 17 8 9 - - -
23/10:30pm - - - - - SW 13 17 7 9 - - -
23/10:00pm - - - - - SW 15 19 8 10 - - -
23/09:30pm - - - - - SW 15 19 8 10 - - -
23/09:00pm - - - - - SSW 13 17 7 9 - - -
23/08:30pm - - - - - SW 15 19 8 10 - - -
23/08:00pm - - - - - S 17 24 9 13 - - -
23/07:30pm - - - - - SSW 15 19 8 10 - - -
23/07:00pm - - - - - S 17 24 9 13 - - -
23/06:30pm - - - - - S 15 19 8 10 - - -
23/06:00pm - - - - - S 17 24 9 13 - - -
23/05:30pm - - - - - S 15 19 8 10 - - -
23/05:00pm - - - - - SSW 20 28 11 15 - - -
23/04:30pm - - - - - SW 22 32 12 17 - - -
23/04:00pm - - - - - SW 24 33 13 18 - - -
23/03:30pm - - - - - SW 26 33 14 18 - - -
23/03:00pm - - - - - SW 24 33 13 18 - - -
23/02:30pm - - - - - SW 30 37 16 20 - - -
23/02:00pm - - - - - SSW 28 35 15 19 - - -
23/01:30pm - - - - - SW 30 39 16 21 - - -
23/01:00pm - - - - - SSW 33 43 18 23 - - -
23/12:30pm - - - - - SSW 32 44 17 24 - - -
23/12:00pm - - - - - SSW 32 41 17 22 - - -
23/11:30am - - - - - SSW 33 48 18 26 - - -
23/11:00am - - - - - SSW 32 41 17 22 - - -
23/10:30am - - - - - SW 32 41 17 22 - - -
23/10:00am - - - - - WSW 19 24 10 13 - - -
23/09:30am - - - - - WSW 24 30 13 16 - - -
23/09:00am - - - - - W 22 28 12 15 - - -
23/08:30am - - - - - W 26 30 14 16 - - -
23/08:00am - - - - - W 24 28 13 15 - - -
23/07:30am - - - - - W 24 28 13 15 - - -
23/07:00am - - - - - SW 26 37 14 20 - - -
23/06:30am - - - - - SW 28 35 15 19 - - -
23/06:00am - - - - - SW 35 54 19 29 - - -
23/05:30am - - - - - SW 35 50 19 27 - - -
23/05:15am - - - - - SSW 35 54 19 29 - - -
23/05:00am - - - - - SSW 37 54 20 29 - - -
23/04:30am - - - - - SW 32 44 17 24 - - -
23/04:00am - - - - - SW 30 35 16 19 - - -
23/03:30am - - - - - SW 28 48 15 26 - - -
23/03:25am - - - - - SW 30 48 16 26 - - -
23/03:00am - - - - - SW 32 41 17 22 - - -
23/02:31am - - - - - SW 32 50 17 27 - - -
23/02:30am - - - - - SW 32 41 17 22 - - -
23/02:00am - - - - - WSW 28 37 15 20 - - -
23/01:30am - - - - - SW 32 41 17 22 - - -
23/01:00am - - - - - SSW 24 37 13 20 - - -
23/12:30am - - - - - S 28 43 15 23 - - -
23/12:00am - - - - - SW 24 41 13 22 - - -
 
Date/Time
EST
Temp
°C
App
Temp
°C
Dew
Point
Rel
Hum
%
Delta-T
°C
Wind Press
QNH
hPa
Press
MSL
hPa
Rain
since 9 am
mm
Dir
 
Spd
km/h
Gust
km/h
Spd
kts
Gust
kts
22/11:30pm - - - - - SSW 28 48 15 26 - - -
22/11:20pm - - - - - S 28 48 15 26 - - -
22/11:00pm - - - - - SSW 24 35 13 19 - - -
22/10:40pm - - - - - S 32 50 17 27 - - -
22/10:30pm - - - - - S 33 50 18 27 - - -
22/10:22pm - - - - - S 32 50 17 27 - - -
22/10:00pm - - - - - S 32 43 17 23 - - -
22/09:38pm - - - - - S 33 52 18 28 - - -
22/09:30pm - - - - - SSW 39 52 21 28 - - -
22/09:00pm - - - - - SSW 35 48 19 26 - - -
22/08:55pm - - - - - SSW 39 52 21 28 - - -
22/08:30pm - - - - - S 33 57 18 31 - - -
22/08:26pm - - - - - S 28 50 15 27 - - -
22/08:00pm - - - - - S 32 48 17 26 - - -
22/07:35pm - - - - - S 35 57 19 31 - - -
22/07:30pm - - - - - S 35 52 19 28 - - -
22/07:00pm - - - - - S 33 56 18 30 - - -
22/06:30pm - - - - - S 39 59 21 32 - - -
22/06:00pm - - - - - SSW 39 57 21 31 - - -
22/05:30pm - - - - - S 37 59 20 32 - - -
22/05:08pm - - - - - SSW 41 59 22 32 - - -
22/05:00pm - - - - - S 46 63 25 34 - - -
22/04:30pm - - - - - S 46 65 25 35 - - -
22/04:00pm - - - - - S 41 61 22 33 - - -
22/03:30pm - - - - - S 43 63 23 34 - - -
22/03:00pm - - - - - S 48 67 26 36 - - -
22/02:41pm - - - - - S 46 65 25 35 - - -
22/02:30pm - - - - - S 48 65 26 35 - - -
22/02:04pm - - - - - S 44 65 24 35 - - -
22/02:00pm - - - - - S 43 57 23 31 - - -
22/01:30pm - - - - - S 52 72 28 39 - - -
22/01:00pm - - - - - S 52 74 28 40 - - -
22/12:30pm - - - - - S 50 78 27 42 - - -
22/12:00pm - - - - - S 52 76 28 41 - - -
22/11:30am - - - - - S 50 70 27 38 - - -
22/11:00am - - - - - S 50 70 27 38 - - -
22/10:30am - - - - - S 41 70 22 38 - - -
22/10:04am - - - - - S 35 57 19 31 - - -
22/10:00am - - - - - S 35 50 19 27 - - -
22/09:31am - - - - - S 30 48 16 26 - - -
22/09:30am - - - - - S 32 48 17 26 - - -
22/09:02am - - - - - S 33 52 18 28 - - -
22/09:00am - - - - - S 37 54 20 29 - - -
22/08:32am - - - - - S 44 65 24 35 - - -
22/08:30am - - - - - S 43 59 23 32 - - -
22/08:02am - - - - - S 33 54 18 29 - - -
22/08:00am - - - - - S 33 48 18 26 - - -
22/07:48am - - - - - SSW 28 50 15 27 - - -
22/07:30am - - - - - SW 30 39 16 21 - - -
22/07:00am - - - - - SW 37 46 20 25 - - -
22/06:30am - - - - - SW 32 43 17 23 - - -
22/06:00am - - - - - SW 32 43 17 23 - - -
22/05:30am - - - - - SW 35 46 19 25 - - -
22/05:00am - - - - - SW 37 52 20 28 - - -
22/04:30am - - - - - SW 35 46 19 25 - - -
22/04:00am - - - - - SW 32 48 17 26 - - -
22/03:30am - - - - - WSW 28 35 15 19 - - -
22/03:00am - - - - - SW 28 39 15 21 - - -
22/02:30am - - - - - SW 32 41 17 22 - - -
22/02:00am - - - - - SW 28 43 15 23 - - -
22/01:30am - - - - - SW 33 48 18 26 - - -
22/01:00am - - - - - SW 32 44 17 24 - - -
22/12:30am - - - - - SW 33 48 18 26 - - -
22/12:00am - - - - - SW 30 39 16 21 - - -
 
Date/Time
EST
Temp
°C
App
Temp
°C
Dew
Point
Rel
Hum
%
Delta-T
°C
Wind Press
QNH
hPa
Press
MSL
hPa
Rain
since 9 am
mm
Dir
 
Spd
km/h
Gust
km/h
Spd
kts
Gust
kts
21/11:30pm - - - - - SW 30 39 16 21 - - -
21/11:00pm - - - - - SW 26 35 14 19 - - -
21/10:30pm - - - - - SW 28 37 15 20 - - -
21/10:00pm - - - - - SSW 28 41 15 22 - - -
21/09:30pm - - - - - SSW 32 43 17 23 - - -
21/09:00pm - - - - - SSW 22 33 12 18 - - -
21/08:30pm - - - - - SW 17 28 9 15 - - -
21/08:00pm - - - - - S 32 41 17 22 - - -
21/07:41pm - - - - - SSW 43 57 23 31 - - -
21/07:31pm - - - - - SW 32 52 17 28 - - -
21/07:30pm - - - - - SW 32 43 17 23 - - -
21/07:00pm - - - - - SSW 28 37 15 20 - - -
21/06:30pm - - - - - SSW 28 41 15 22 - - -
21/06:00pm - - - - - SSW 32 43 17 23 - - -
21/05:30pm - - - - - SSW 32 43 17 23 - - -
21/05:00pm - - - - - SSW 28 35 15 19 - - -
21/04:30pm - - - - - SSW 26 33 14 18 - - -
21/04:00pm - - - - - SSW 20 30 11 16 - - -
21/03:30pm - - - - - SSW 22 30 12 16 - - -
21/03:00pm - - - - - SSW 24 33 13 18 - - -
21/02:30pm - - - - - SSW 28 35 15 19 - - -
21/02:00pm - - - - - SSW 26 33 14 18 - - -
21/01:30pm - - - - - SSW 30 37 16 20 - - -
21/01:00pm - - - - - SSW 26 35 14 19 - - -

Other Formats:

Comma delimited format used in spreadsheet applications
http://www.bom.gov.au/fwo/IDN60801/IDN60801.95756.axf

JavaScript Object Notation format (JSON) in row-major order
http://www.bom.gov.au/fwo/IDN60801/IDN60801.95756.json